メインページ
METAR-TAF:

METAR-TAF

空港 :

Mason Jewett Field

Mason, ミシガン州, アメリカ合衆国

緯度: 42-33-57N, 経度: 084-25-24W, 海抜: 280m

現時点の気象観測

当レポートは24分前の11:35(UTC)に作成
西の風 4kt
気温 -11°C
湿度 78%
気圧 1026 hPa
視程: 16.1km
晴天

METAR: KTEW 231135Z AUTO 27004KT 10SM CLR M11/M14 A3031 RMK AO2 T11081141

時間: 06:59 (11:59 UTC)


TAF: 見つかりません

4,000以上の空港の気象観測と天気予報(METAR報とTAF報)

利用可能な観測所は地図上に黄色い丸と赤い丸で示す。

丸の上にカーソルを重ねると観測所名を参照できる。

次にクリックすると気象観測と天気予報を参照できる。

マップの切り替え:黒色「×」印の緑ボタンをクリックして拡大、「-」印の緑ボタンをクリックして縮小、緑色の三角印をクリックして隣りの地図に切り替え


METAR-TAF: